sensor_id;sensor_type;location;lat;lon;timestamp;pressure;altitude;pressure_sealevel;temperature;humidity
7018;BME280;3549;42.162;24.726;2023-07-31T00:00:57;47299.97;;;-141.97;43.33
7018;BME280;3549;42.162;24.726;2023-07-31T00:03:23;47251.94;;;-141.97;43.13
7018;BME280;3549;42.162;24.726;2023-07-31T00:05:48;47309.59;;;-141.97;43.60
7018;BME280;3549;42.162;24.726;2023-07-31T00:08:14;47307.66;;;-141.97;43.47
7018;BME280;3549;42.162;24.726;2023-07-31T00:10:39;47217.34;;;-141.97;43.40
7018;BME280;3549;42.162;24.726;2023-07-31T00:13:04;47303.81;;;-141.97;43.42
7018;BME280;3549;42.162;24.726;2023-07-31T00:15:30;47313.44;;;-141.97;43.64
7018;BME280;3549;42.162;24.726;2023-07-31T00:17:55;47275.00;;;-141.97;43.77
7018;BME280;3549;42.162;24.726;2023-07-31T00:20:21;47488.31;;;-141.97;43.54
7018;BME280;3549;42.162;24.726;2023-07-31T00:22:46;47332.66;;;-141.97;43.42
7018;BME280;3549;42.162;24.726;2023-07-31T00:25:11;47230.78;;;-141.97;43.79
7018;BME280;3549;42.162;24.726;2023-07-31T00:27:37;47507.53;;;-141.97;43.78
7018;BME280;3549;42.162;24.726;2023-07-31T00:30:03;47307.66;;;-141.97;43.93
7018;BME280;3549;42.162;24.726;2023-07-31T00:32:28;47311.50;;;-141.97;43.65
7018;BME280;3549;42.162;24.726;2023-07-31T00:34:54;47576.75;;;-141.97;43.70
7018;BME280;3549;42.162;24.726;2023-07-31T00:37:19;47315.34;;;-141.97;43.84
7018;BME280;3549;42.162;24.726;2023-07-31T00:39:44;47230.78;;;-141.97;43.90
7018;BME280;3549;42.162;24.726;2023-07-31T00:42:10;47255.78;;;-141.97;43.83
7018;BME280;3549;42.162;24.726;2023-07-31T00:44:35;47488.31;;;-141.97;43.65
7018;BME280;3549;42.162;24.726;2023-07-31T00:47:01;47248.09;;;-141.97;43.73
7018;BME280;3549;42.162;24.726;2023-07-31T00:49:26;47522.91;;;-141.97;43.72
7018;BME280;3549;42.162;24.726;2023-07-31T00:51:53;47213.50;;;-141.97;43.81
7018;BME280;3549;42.162;24.726;2023-07-31T00:54:19;47165.44;;;-141.97;43.75
7018;BME280;3549;42.162;24.726;2023-07-31T00:56:47;47282.69;;;-141.97;43.87
7018;BME280;3549;42.162;24.726;2023-07-31T00:59:13;47250.00;;;-141.97;43.57
7018;BME280;3549;42.162;24.726;2023-07-31T01:01:40;47209.66;;;-141.97;43.64
7018;BME280;3549;42.162;24.726;2023-07-31T01:04:05;47428.75;;;-141.97;43.85
7018;BME280;3549;42.162;24.726;2023-07-31T01:06:36;47307.66;;;-141.97;44.09
7018;BME280;3549;42.162;24.726;2023-07-31T01:11:49;47319.19;;;-141.97;44.50
7018;BME280;3549;42.162;24.726;2023-07-31T01:14:17;47088.56;;;-141.97;44.71
7018;BME280;3549;42.162;24.726;2023-07-31T01:16:42;47461.41;;;-141.97;44.33
7018;BME280;3549;42.162;24.726;2023-07-31T01:19:09;47340.34;;;-141.97;44.57
7018;BME280;3549;42.162;24.726;2023-07-31T01:27:27;47324.97;;;-141.97;46.04
7018;BME280;3549;42.162;24.726;2023-07-31T01:30:08;47317.28;;;-141.97;46.25
7018;BME280;3549;42.162;24.726;2023-07-31T01:32:40;47257.69;;;-141.97;46.05
7018;BME280;3549;42.162;24.726;2023-07-31T01:35:07;47271.16;;;-141.97;46.16
7018;BME280;3549;42.162;24.726;2023-07-31T01:37:34;47194.28;;;-141.97;46.52
7018;BME280;3549;42.162;24.726;2023-07-31T01:39:59;47419.13;;;-141.97;46.67
7018;BME280;3549;42.162;24.726;2023-07-31T01:42:24;47332.66;;;-141.97;46.94
7018;BME280;3549;42.162;24.726;2023-07-31T01:44:50;47330.72;;;-141.97;47.11
7018;BME280;3549;42.162;24.726;2023-07-31T01:47:15;47211.56;;;-141.97;47.33
7018;BME280;3549;42.162;24.726;2023-07-31T01:49:41;47559.44;;;-141.97;47.35
7018;BME280;3549;42.162;24.726;2023-07-31T01:52:06;47534.44;;;-141.97;47.19
7018;BME280;3549;42.162;24.726;2023-07-31T01:54:32;47465.25;;;-141.97;46.68
7018;BME280;3549;42.162;24.726;2023-07-31T01:56:58;47246.16;;;-141.97;47.00
7018;BME280;3549;42.162;24.726;2023-07-31T01:59:24;47540.22;;;-141.97;47.06
7018;BME280;3549;42.162;24.726;2023-07-31T02:01:49;47169.28;;;-141.97;47.06
7018;BME280;3549;42.162;24.726;2023-07-31T02:04:14;47359.56;;;-141.97;46.96
7018;BME280;3549;42.162;24.726;2023-07-31T02:06:40;47524.84;;;-141.97;46.99
7018;BME280;3549;42.162;24.726;2023-07-31T02:09:05;47474.88;;;-141.97;47.25
7018;BME280;3549;42.162;24.726;2023-07-31T02:11:30;47315.34;;;-141.97;47.40
7018;BME280;3549;42.162;24.726;2023-07-31T02:13:56;47269.22;;;-141.97;47.49
7018;BME280;3549;42.162;24.726;2023-07-31T02:16:21;47269.22;;;-141.97;47.19
7018;BME280;3549;42.162;24.726;2023-07-31T02:18:47;47192.34;;;-141.97;47.78
7018;BME280;3549;42.162;24.726;2023-07-31T02:21:12;47180.81;;;-141.97;47.56
7018;BME280;3549;42.162;24.726;2023-07-31T02:23:37;47467.19;;;-141.97;47.72
7018;BME280;3549;42.162;24.726;2023-07-31T02:26:03;47349.94;;;-141.97;47.62
7018;BME280;3549;42.162;24.726;2023-07-31T02:28:29;47253.84;;;-141.97;47.45
7018;BME280;3549;42.162;24.726;2023-07-31T02:30:54;47505.63;;;-141.97;47.40
7018;BME280;3549;42.162;24.726;2023-07-31T02:33:20;47319.19;;;-141.97;48.17
7018;BME280;3549;42.162;24.726;2023-07-31T02:35:46;47338.41;;;-141.97;49.14
7018;BME280;3549;42.162;24.726;2023-07-31T02:38:11;47250.00;;;-141.97;50.07
7018;BME280;3549;42.162;24.726;2023-07-31T02:40:36;47226.94;;;-141.97;51.28
7018;BME280;3549;42.162;24.726;2023-07-31T02:43:02;47084.72;;;-141.97;52.23
7018;BME280;3549;42.162;24.726;2023-07-31T02:45:27;47359.56;;;-141.97;52.31
7018;BME280;3549;42.162;24.726;2023-07-31T02:47:53;47029.00;;;-141.97;53.74
7018;BME280;3549;42.162;24.726;2023-07-31T02:50:18;47342.25;;;-141.97;54.19
7018;BME280;3549;42.162;24.726;2023-07-31T02:52:43;47223.09;;;-141.97;53.88
7018;BME280;3549;42.162;24.726;2023-07-31T02:55:09;47469.09;;;-141.97;54.63
7018;BME280;3549;42.162;24.726;2023-07-31T02:57:34;47565.22;;;-141.97;56.04
7018;BME280;3549;42.162;24.726;2023-07-31T02:59:59;47319.19;;;-141.97;56.00
7018;BME280;3549;42.162;24.726;2023-07-31T03:02:25;47155.84;;;-141.97;55.77
7018;BME280;3549;42.162;24.726;2023-07-31T03:04:50;47478.72;;;-141.97;56.40
7018;BME280;3549;42.162;24.726;2023-07-31T03:07:16;47399.91;;;-141.97;58.97
7018;BME280;3549;42.162;24.726;2023-07-31T03:09:41;47336.50;;;-141.97;60.90
7018;BME280;3549;42.162;24.726;2023-07-31T03:12:07;47276.91;;;-141.97;64.95
7018;BME280;3549;42.162;24.726;2023-07-31T03:14:33;47446.03;;;-141.97;69.63
7018;BME280;3549;42.162;24.726;2023-07-31T03:16:59;47398.00;;;-141.97;74.38
7018;BME280;3549;42.162;24.726;2023-07-31T03:19:25;47307.66;;;-141.97;79.76
7018;BME280;3549;42.162;24.726;2023-07-31T03:21:50;47217.34;;;-141.97;86.44
7018;BME280;3549;42.162;24.726;2023-07-31T03:24:15;47388.38;;;-141.97;92.16
7018;BME280;3549;42.162;24.726;2023-07-31T03:26:41;47390.31;;;-141.97;95.04
7018;BME280;3549;42.162;24.726;2023-07-31T03:29:07;47403.75;;;-141.97;97.06
7018;BME280;3549;42.162;24.726;2023-07-31T03:31:32;47315.34;;;-141.97;98.17
7018;BME280;3549;42.162;24.726;2023-07-31T03:33:58;47586.34;;;-141.97;99.18
7018;BME280;3549;42.162;24.726;2023-07-31T03:36:23;47299.97;;;-141.97;99.94
7018;BME280;3549;42.162;24.726;2023-07-31T03:38:49;47511.38;;;-141.97;100.00
7018;BME280;3549;42.162;24.726;2023-07-31T03:41:14;47415.28;;;-141.97;100.00
7018;BME280;3549;42.162;24.726;2023-07-31T03:43:39;47565.22;;;-141.97;100.00
7018;BME280;3549;42.162;24.726;2023-07-31T03:46:05;47553.69;;;-141.97;100.00
7018;BME280;3549;42.162;24.726;2023-07-31T03:48:30;47580.59;;;-141.97;100.00
7018;BME280;3549;42.162;24.726;2023-07-31T03:50:56;47438.34;;;-141.97;100.00
7018;BME280;3549;42.162;24.726;2023-07-31T03:53:21;47405.69;;;-141.97;99.09
7018;BME280;3549;42.162;24.726;2023-07-31T03:55:46;47611.34;;;-141.97;99.27
7018;BME280;3549;42.162;24.726;2023-07-31T03:58:12;47405.69;;;-141.97;99.26
7018;BME280;3549;42.162;24.726;2023-07-31T04:00:39;47409.53;;;-141.97;98.97
7018;BME280;3549;42.162;24.726;2023-07-31T04:03:05;47176.97;;;-141.97;99.21
7018;BME280;3549;42.162;24.726;2023-07-31T04:05:31;47259.63;;;-141.97;98.84
7018;BME280;3549;42.162;24.726;2023-07-31T04:07:57;47434.50;;;-141.97;98.51
7018;BME280;3549;42.162;24.726;2023-07-31T04:10:22;47250.00;;;-141.97;98.21
7018;BME280;3549;42.162;24.726;2023-07-31T04:12:48;47411.44;;;-141.97;97.76
7018;BME280;3549;42.162;24.726;2023-07-31T04:15:13;47363.41;;;-141.97;98.03
7018;BME280;3549;42.162;24.726;2023-07-31T04:17:39;47346.09;;;-141.97;98.25
7018;BME280;3549;42.162;24.726;2023-07-31T04:20:05;47457.56;;;-141.97;98.65
7018;BME280;3549;42.162;24.726;2023-07-31T04:22:30;47480.63;;;-141.97;98.25
7018;BME280;3549;42.162;24.726;2023-07-31T04:24:56;47407.59;;;-141.97;97.41
7018;BME280;3549;42.162;24.726;2023-07-31T04:27:21;47405.69;;;-141.97;95.24
7018;BME280;3549;42.162;24.726;2023-07-31T04:29:46;47428.75;;;-141.97;93.69
7018;BME280;3549;42.162;24.726;2023-07-31T04:32:13;47411.44;;;-141.97;92.02
7018;BME280;3549;42.162;24.726;2023-07-31T04:34:38;47401.84;;;-141.97;90.76
7018;BME280;3549;42.162;24.726;2023-07-31T04:37:04;47424.91;;;-141.97;90.08
7018;BME280;3549;42.162;24.726;2023-07-31T04:39:29;47601.72;;;-141.97;88.54
7018;BME280;3549;42.162;24.726;2023-07-31T04:41:54;47371.09;;;-141.97;89.12
7018;BME280;3549;42.162;24.726;2023-07-31T04:44:20;47417.22;;;-141.97;88.17
7018;BME280;3549;42.162;24.726;2023-07-31T04:46:45;47346.09;;;-141.97;87.70
7018;BME280;3549;42.162;24.726;2023-07-31T04:49:11;47411.44;;;-141.97;87.15
7018;BME280;3549;42.162;24.726;2023-07-31T04:51:37;47419.13;;;-141.97;85.59
7018;BME280;3549;42.162;24.726;2023-07-31T04:54:02;47184.66;;;-141.97;84.38
7018;BME280;3549;42.162;24.726;2023-07-31T04:56:28;47496.00;;;-141.97;84.90
7018;BME280;3549;42.162;24.726;2023-07-31T04:58:53;47430.66;;;-141.97;82.84
7018;BME280;3549;42.162;24.726;2023-07-31T05:01:18;47342.25;;;-141.97;83.06
7018;BME280;3549;42.162;24.726;2023-07-31T05:03:44;47363.41;;;-141.97;83.16
7018;BME280;3549;42.162;24.726;2023-07-31T05:06:09;47422.97;;;-141.97;83.25
7018;BME280;3549;42.162;24.726;2023-07-31T05:08:35;47407.59;;;-141.97;82.79
7018;BME280;3549;42.162;24.726;2023-07-31T05:11:00;47569.06;;;-141.97;82.42
7018;BME280;3549;42.162;24.726;2023-07-31T05:13:25;47590.19;;;-141.97;81.53
7018;BME280;3549;42.162;24.726;2023-07-31T05:15:51;47565.22;;;-141.97;81.10
7018;BME280;3549;42.162;24.726;2023-07-31T05:18:16;47426.81;;;-141.97;81.59
7018;BME280;3549;42.162;24.726;2023-07-31T05:20:42;47386.47;;;-141.97;81.20
7018;BME280;3549;42.162;24.726;2023-07-31T05:23:07;47434.50;;;-141.97;80.60
7018;BME280;3549;42.162;24.726;2023-07-31T05:25:32;47215.41;;;-141.97;79.72
7018;BME280;3549;42.162;24.726;2023-07-31T05:27:58;47323.03;;;-141.97;79.38
7018;BME280;3549;42.162;24.726;2023-07-31T05:30:23;47396.06;;;-141.97;79.34
7018;BME280;3549;42.162;24.726;2023-07-31T05:32:48;47394.16;;;-141.97;78.08
7018;BME280;3549;42.162;24.726;2023-07-31T05:35:14;47411.44;;;-141.97;77.28
7018;BME280;3549;42.162;24.726;2023-07-31T05:37:39;47426.81;;;-141.97;76.95
7018;BME280;3549;42.162;24.726;2023-07-31T05:40:05;47461.41;;;-141.97;77.56
7018;BME280;3549;42.162;24.726;2023-07-31T05:42:31;47409.53;;;-141.97;76.27
7018;BME280;3549;42.162;24.726;2023-07-31T05:44:56;47378.78;;;-141.97;76.75
7018;BME280;3549;42.162;24.726;2023-07-31T05:47:22;47428.75;;;-141.97;76.45
7018;BME280;3549;42.162;24.726;2023-07-31T05:49:48;47399.91;;;-141.97;76.30
7018;BME280;3549;42.162;24.726;2023-07-31T05:52:14;47413.38;;;-141.97;75.45
7018;BME280;3549;42.162;24.726;2023-07-31T05:54:40;47386.47;;;-141.97;74.69
7018;BME280;3549;42.162;24.726;2023-07-31T05:57:05;47353.78;;;-141.97;74.05
7018;BME280;3549;42.162;24.726;2023-07-31T05:59:30;47426.81;;;-141.97;72.51
7018;BME280;3549;42.162;24.726;2023-07-31T06:01:58;47363.41;;;-141.97;71.41
7018;BME280;3549;42.162;24.726;2023-07-31T06:04:23;47338.41;;;-141.97;70.56
7018;BME280;3549;42.162;24.726;2023-07-31T06:06:50;47386.47;;;-141.97;69.34
7018;BME280;3549;42.162;24.726;2023-07-31T06:09:16;47378.78;;;-141.97;68.83
7018;BME280;3549;42.162;24.726;2023-07-31T06:11:41;47392.22;;;-141.97;67.16
7018;BME280;3549;42.162;24.726;2023-07-31T06:14:06;47417.22;;;-141.97;67.59
7018;BME280;3549;42.162;24.726;2023-07-31T06:16:32;47411.44;;;-141.97;66.97
7018;BME280;3549;42.162;24.726;2023-07-31T06:18:57;47511.38;;;-141.97;66.81
7018;BME280;3549;42.162;24.726;2023-07-31T06:21:23;47405.69;;;-141.97;66.71
7018;BME280;3549;42.162;24.726;2023-07-31T06:23:48;47394.16;;;-141.97;65.97
7018;BME280;3549;42.162;24.726;2023-07-31T06:26:13;47595.97;;;-141.97;66.06
7018;BME280;3549;42.162;24.726;2023-07-31T06:28:39;47378.78;;;-141.97;64.99
7018;BME280;3549;42.162;24.726;2023-07-31T06:31:05;47250.00;;;-141.97;65.33
7018;BME280;3549;42.162;24.726;2023-07-31T06:33:30;47373.00;;;-141.97;64.48
7018;BME280;3549;42.162;24.726;2023-07-31T06:35:55;47382.63;;;-141.97;64.37
7018;BME280;3549;42.162;24.726;2023-07-31T06:38:26;47409.53;;;-141.97;64.39
7018;BME280;3549;42.162;24.726;2023-07-31T06:40:52;47353.78;;;-141.97;64.03
7018;BME280;3549;42.162;24.726;2023-07-31T06:43:17;47396.06;;;-141.97;63.73
7018;BME280;3549;42.162;24.726;2023-07-31T06:45:43;47419.13;;;-141.97;63.10
7018;BME280;3549;42.162;24.726;2023-07-31T06:48:08;47361.47;;;-141.97;61.86
7018;BME280;3549;42.162;24.726;2023-07-31T06:50:34;47330.72;;;-141.97;61.88
7018;BME280;3549;42.162;24.726;2023-07-31T06:52:59;47334.56;;;-141.97;61.02
7018;BME280;3549;42.162;24.726;2023-07-31T06:55:25;47213.50;;;-141.97;60.99
7018;BME280;3549;42.162;24.726;2023-07-31T06:57:53;47367.25;;;-141.97;61.15
7018;BME280;3549;42.162;24.726;2023-07-31T07:00:20;47374.94;;;-141.97;60.61
7018;BME280;3549;42.162;24.726;2023-07-31T07:02:46;47373.00;;;-141.97;60.17
7018;BME280;3549;42.162;24.726;2023-07-31T07:05:16;47507.53;;;-141.97;58.71
7018;BME280;3549;42.162;24.726;2023-07-31T07:07:42;47597.88;;;-141.97;60.18
7018;BME280;3549;42.162;24.726;2023-07-31T07:10:09;47526.75;;;-141.97;60.48
7018;BME280;3549;42.162;24.726;2023-07-31T07:12:34;47077.03;;;-141.97;59.83
7018;BME280;3549;42.162;24.726;2023-07-31T07:15:01;47567.13;;;-141.97;60.16
7018;BME280;3549;42.162;24.726;2023-07-31T07:17:27;47386.47;;;-141.97;59.25
7018;BME280;3549;42.162;24.726;2023-07-31T07:19:53;47080.88;;;-141.97;58.01
7018;BME280;3549;42.162;24.726;2023-07-31T07:22:19;47328.81;;;-141.97;59.21
7018;BME280;3549;42.162;24.726;2023-07-31T07:24:44;47319.19;;;-141.97;59.02
7018;BME280;3549;42.162;24.726;2023-07-31T07:27:10;47488.31;;;-141.97;59.68
7018;BME280;3549;42.162;24.726;2023-07-31T07:29:35;47599.81;;;-141.97;58.96
7018;BME280;3549;42.162;24.726;2023-07-31T07:32:01;47336.50;;;-141.97;58.24
7018;BME280;3549;42.162;24.726;2023-07-31T07:34:27;47378.78;;;-141.97;57.78
7018;BME280;3549;42.162;24.726;2023-07-31T07:36:53;47311.50;;;-141.97;56.29
7018;BME280;3549;42.162;24.726;2023-07-31T07:39:19;47294.22;;;-141.97;54.03
7018;BME280;3549;42.162;24.726;2023-07-31T07:41:45;47161.59;;;-141.97;55.44
7018;BME280;3549;42.162;24.726;2023-07-31T07:44:12;47326.88;;;-141.97;56.22
7018;BME280;3549;42.162;24.726;2023-07-31T07:46:37;47263.47;;;-141.97;56.13
7018;BME280;3549;42.162;24.726;2023-07-31T07:49:02;47313.44;;;-141.97;55.79
7018;BME280;3549;42.162;24.726;2023-07-31T07:51:28;47296.13;;;-141.97;54.97
7018;BME280;3549;42.162;24.726;2023-07-31T07:53:55;47336.50;;;-141.97;55.50
7018;BME280;3549;42.162;24.726;2023-07-31T07:56:21;47532.53;;;-141.97;55.06
7018;BME280;3549;42.162;24.726;2023-07-31T07:58:49;47373.00;;;-141.97;55.45
7018;BME280;3549;42.162;24.726;2023-07-31T08:01:15;47326.88;;;-141.97;54.34
7018;BME280;3549;42.162;24.726;2023-07-31T08:03:40;47307.66;;;-141.97;52.43
7018;BME280;3549;42.162;24.726;2023-07-31T08:06:05;47305.75;;;-141.97;53.62
7018;BME280;3549;42.162;24.726;2023-07-31T08:08:31;47501.78;;;-141.97;53.63
7018;BME280;3549;42.162;24.726;2023-07-31T08:10:56;47471.03;;;-141.97;53.79
7018;BME280;3549;42.162;24.726;2023-07-31T08:13:21;47255.78;;;-141.97;52.12
7018;BME280;3549;42.162;24.726;2023-07-31T08:15:47;47417.22;;;-141.97;50.67
7018;BME280;3549;42.162;24.726;2023-07-31T08:18:12;47303.81;;;-141.97;48.63
7018;BME280;3549;42.162;24.726;2023-07-31T08:20:38;47436.44;;;-141.97;48.47
7018;BME280;3549;42.162;24.726;2023-07-31T08:23:03;47203.88;;;-141.97;49.15
7018;BME280;3549;42.162;24.726;2023-07-31T08:25:29;47309.59;;;-141.97;49.09
7018;BME280;3549;42.162;24.726;2023-07-31T08:27:55;47244.25;;;-141.97;48.44
7018;BME280;3549;42.162;24.726;2023-07-31T08:30:21;47271.16;;;-141.97;47.90
7018;BME280;3549;42.162;24.726;2023-07-31T08:32:46;47278.84;;;-141.97;48.41
7018;BME280;3549;42.162;24.726;2023-07-31T08:35:12;47330.72;;;-141.97;47.64
7018;BME280;3549;42.162;24.726;2023-07-31T08:37:38;47228.88;;;-141.97;48.38
7018;BME280;3549;42.162;24.726;2023-07-31T08:40:05;47263.47;;;-141.97;48.26
7018;BME280;3549;42.162;24.726;2023-07-31T08:42:31;47248.09;;;-141.97;49.51
7018;BME280;3549;42.162;24.726;2023-07-31T08:44:57;47326.88;;;-141.97;49.16
7018;BME280;3549;42.162;24.726;2023-07-31T08:47:25;47282.69;;;-141.97;47.68
7018;BME280;3549;42.162;24.726;2023-07-31T08:49:51;47315.34;;;-141.97;46.38
7018;BME280;3549;42.162;24.726;2023-07-31T08:52:18;47280.75;;;-141.97;48.58
7018;BME280;3549;42.162;24.726;2023-07-31T08:54:43;47311.50;;;-141.97;48.14
7018;BME280;3549;42.162;24.726;2023-07-31T08:57:09;47488.31;;;-141.97;48.35
7018;BME280;3549;42.162;24.726;2023-07-31T08:59:36;47499.84;;;-141.97;48.01
7018;BME280;3549;42.162;24.726;2023-07-31T09:02:08;47328.81;;;-141.97;48.38
7018;BME280;3549;42.162;24.726;2023-07-31T09:04:34;47317.28;;;-141.97;47.69
7018;BME280;3549;42.162;24.726;2023-07-31T09:07:01;47311.50;;;-141.97;47.20
7018;BME280;3549;42.162;24.726;2023-07-31T09:09:32;47559.44;;;-141.97;47.15
7018;BME280;3549;42.162;24.726;2023-07-31T09:11:58;47251.94;;;-141.97;45.69
7018;BME280;3549;42.162;24.726;2023-07-31T09:14:25;47299.97;;;-141.97;44.25
7018;BME280;3549;42.162;24.726;2023-07-31T09:16:58;47242.31;;;-141.97;44.00
7018;BME280;3549;42.162;24.726;2023-07-31T09:19:35;47232.72;;;-141.97;42.98
7018;BME280;3549;42.162;24.726;2023-07-31T09:22:05;47288.44;;;-141.97;44.28
7018;BME280;3549;42.162;24.726;2023-07-31T09:24:32;47299.97;;;-141.97;45.25
7018;BME280;3549;42.162;24.726;2023-07-31T09:26:59;47588.28;;;-141.97;45.33
7018;BME280;3549;42.162;24.726;2023-07-31T09:29:25;47269.22;;;-141.97;45.26
7018;BME280;3549;42.162;24.726;2023-07-31T09:31:52;47457.56;;;-141.97;43.28
7018;BME280;3549;42.162;24.726;2023-07-31T09:34:19;47065.50;;;-141.97;43.19
7018;BME280;3549;42.162;24.726;2023-07-31T09:36:49;47292.28;;;-141.97;42.22
7018;BME280;3549;42.162;24.726;2023-07-31T09:39:16;47250.00;;;-141.97;41.58
7018;BME280;3549;42.162;24.726;2023-07-31T09:41:47;47265.38;;;-141.97;41.84
7018;BME280;3549;42.162;24.726;2023-07-31T09:44:18;47296.13;;;-141.97;42.28
7018;BME280;3549;42.162;24.726;2023-07-31T09:46:44;47265.38;;;-141.97;41.76
7018;BME280;3549;42.162;24.726;2023-07-31T09:49:10;47261.53;;;-141.97;41.47
7018;BME280;3549;42.162;24.726;2023-07-31T09:51:37;47246.16;;;-141.97;41.27
7018;BME280;3549;42.162;24.726;2023-07-31T09:54:13;47246.16;;;-141.97;41.42
7018;BME280;3549;42.162;24.726;2023-07-31T09:56:44;47557.53;;;-141.97;41.30
7018;BME280;3549;42.162;24.726;2023-07-31T09:59:15;47253.84;;;-141.97;40.17
7018;BME280;3549;42.162;24.726;2023-07-31T10:01:41;47223.09;;;-141.97;40.03
7018;BME280;3549;42.162;24.726;2023-07-31T10:04:09;47232.72;;;-141.97;40.45
7018;BME280;3549;42.162;24.726;2023-07-31T10:06:35;47203.88;;;-141.97;39.51
7018;BME280;3549;42.162;24.726;2023-07-31T10:09:11;47175.06;;;-141.97;39.90
7018;BME280;3549;42.162;24.726;2023-07-31T10:11:41;47217.34;;;-141.97;40.36
7018;BME280;3549;42.162;24.726;2023-07-31T10:14:09;47261.53;;;-141.97;41.01
7018;BME280;3549;42.162;24.726;2023-07-31T10:16:38;47234.63;;;-141.97;40.82
7018;BME280;3549;42.162;24.726;2023-07-31T10:19:05;47515.22;;;-141.97;41.28
7018;BME280;3549;42.162;24.726;2023-07-31T10:21:31;47257.69;;;-141.97;41.38
7018;BME280;3549;42.162;24.726;2023-07-31T10:24:03;47257.69;;;-141.97;40.98
7018;BME280;3549;42.162;24.726;2023-07-31T10:26:29;47276.91;;;-141.97;40.60
7018;BME280;3549;42.162;24.726;2023-07-31T10:28:56;47513.31;;;-141.97;39.16
7018;BME280;3549;42.162;24.726;2023-07-31T10:31:23;47288.44;;;-141.97;38.93
7018;BME280;3549;42.162;24.726;2023-07-31T10:33:50;47492.16;;;-141.97;38.09
7018;BME280;3549;42.162;24.726;2023-07-31T10:36:20;47428.75;;;-141.97;40.71
7018;BME280;3549;42.162;24.726;2023-07-31T10:38:48;47192.34;;;-141.97;40.46
7018;BME280;3549;42.162;24.726;2023-07-31T10:41:14;47246.16;;;-141.97;40.66
7018;BME280;3549;42.162;24.726;2023-07-31T10:43:39;47226.94;;;-141.97;40.10
7018;BME280;3549;42.162;24.726;2023-07-31T10:46:09;47296.13;;;-141.97;40.92
7018;BME280;3549;42.162;24.726;2023-07-31T10:48:38;47223.09;;;-141.97;39.75
7018;BME280;3549;42.162;24.726;2023-07-31T10:51:10;47263.47;;;-141.97;38.78
7018;BME280;3549;42.162;24.726;2023-07-31T10:53:37;47242.31;;;-141.97;38.19
7018;BME280;3549;42.162;24.726;2023-07-31T10:56:05;47171.22;;;-141.97;38.11
7018;BME280;3549;42.162;24.726;2023-07-31T10:58:31;47259.63;;;-141.97;37.58
7018;BME280;3549;42.162;24.726;2023-07-31T11:00:59;47240.41;;;-141.97;37.80
7018;BME280;3549;42.162;24.726;2023-07-31T11:03:41;47226.94;;;-141.97;38.75
7018;BME280;3549;42.162;24.726;2023-07-31T11:06:08;47215.41;;;-141.97;38.84
7018;BME280;3549;42.162;24.726;2023-07-31T11:08:35;47200.03;;;-141.97;39.50
7018;BME280;3549;42.162;24.726;2023-07-31T11:13:30;47286.53;;;-141.97;44.16
7018;BME280;3549;42.162;24.726;2023-07-31T11:15:56;47319.19;;;-141.97;46.07
7018;BME280;3549;42.162;24.726;2023-07-31T11:18:21;47323.03;;;-141.97;48.13
7018;BME280;3549;42.162;24.726;2023-07-31T11:20:47;47307.66;;;-141.97;47.81
7018;BME280;3549;42.162;24.726;2023-07-31T11:23:12;47438.34;;;-141.97;48.43
7018;BME280;3549;42.162;24.726;2023-07-31T11:25:39;47374.94;;;-141.97;48.69
7018;BME280;3549;42.162;24.726;2023-07-31T11:28:12;47334.56;;;-141.97;48.33
7018;BME280;3549;42.162;24.726;2023-07-31T11:30:39;47469.09;;;-141.97;47.99
7018;BME280;3549;42.162;24.726;2023-07-31T11:33:06;47342.25;;;-141.97;46.13
7018;BME280;3549;42.162;24.726;2023-07-31T11:35:33;47296.13;;;-141.97;43.76
7018;BME280;3549;42.162;24.726;2023-07-31T11:37:59;47103.94;;;-141.97;42.48
7018;BME280;3549;42.162;24.726;2023-07-31T11:40:25;47134.69;;;-141.97;42.07
7018;BME280;3549;42.162;24.726;2023-07-31T11:42:58;47538.28;;;-141.97;41.70
7018;BME280;3549;42.162;24.726;2023-07-31T11:45:27;47200.03;;;-141.97;41.50
7018;BME280;3549;42.162;24.726;2023-07-31T11:47:56;47030.91;;;-141.97;39.67
7018;BME280;3549;42.162;24.726;2023-07-31T11:50:25;47069.34;;;-141.97;39.06
7018;BME280;3549;42.162;24.726;2023-07-31T11:53:02;47182.75;;;-141.97;38.72
7018;BME280;3549;42.162;24.726;2023-07-31T11:55:31;47205.81;;;-141.97;37.74
7018;BME280;3549;42.162;24.726;2023-07-31T11:57:57;47238.47;;;-141.97;38.31
7018;BME280;3549;42.162;24.726;2023-07-31T12:00:24;47182.75;;;-141.97;37.16
7018;BME280;3549;42.162;24.726;2023-07-31T12:02:50;47161.59;;;-141.97;35.91
7018;BME280;3549;42.162;24.726;2023-07-31T12:05:16;47092.41;;;-141.97;34.56
7018;BME280;3549;42.162;24.726;2023-07-31T12:07:53;47161.59;;;-141.97;34.34
7018;BME280;3549;42.162;24.726;2023-07-31T12:10:31;46977.09;;;-141.97;34.88
7018;BME280;3549;42.162;24.726;2023-07-31T12:13:01;47117.41;;;-141.97;35.99
7018;BME280;3549;42.162;24.726;2023-07-31T12:17:58;47128.94;;;-141.97;34.66
7018;BME280;3549;42.162;24.726;2023-07-31T12:20:23;47146.22;;;-141.97;34.52
7018;BME280;3549;42.162;24.726;2023-07-31T12:22:49;47436.44;;;-141.97;34.56
7018;BME280;3549;42.162;24.726;2023-07-31T12:25:17;47115.47;;;-141.97;33.83
7018;BME280;3549;42.162;24.726;2023-07-31T12:27:45;47127.00;;;-141.97;34.36
7018;BME280;3549;42.162;24.726;2023-07-31T12:30:33;47125.09;;;-141.97;33.56
7018;BME280;3549;42.162;24.726;2023-07-31T12:33:12;47259.63;;;-141.97;34.05
7018;BME280;3549;42.162;24.726;2023-07-31T12:35:40;47132.78;;;-141.97;32.19
7018;BME280;3549;42.162;24.726;2023-07-31T12:38:05;47111.63;;;-141.97;31.78
7018;BME280;3549;42.162;24.726;2023-07-31T12:40:31;47092.41;;;-141.97;31.62
7018;BME280;3549;42.162;24.726;2023-07-31T12:42:57;47057.81;;;-141.97;31.53
7018;BME280;3549;42.162;24.726;2023-07-31T12:45:22;47102.03;;;-141.97;31.76
7018;BME280;3549;42.162;24.726;2023-07-31T12:47:48;47125.09;;;-141.97;31.77
7018;BME280;3549;42.162;24.726;2023-07-31T12:50:14;47182.75;;;-141.97;33.67
7018;BME280;3549;42.162;24.726;2023-07-31T12:52:39;47223.09;;;-141.97;34.85
7018;BME280;3549;42.162;24.726;2023-07-31T12:55:05;47182.75;;;-141.97;35.08
7018;BME280;3549;42.162;24.726;2023-07-31T12:57:30;47242.31;;;-141.97;35.22
7018;BME280;3549;42.162;24.726;2023-07-31T12:59:56;47217.34;;;-141.97;35.67